Time;durP1;ratioP1;P1;durP2;ratioP2;P2;SDS_P1;SDS_P2;PMS_P1;PMS_P2;Temp;Humidity;BMP_temperature;BMP_pressure;BME280_temperature;BME280_humidity;BME280_pressure;Samples;Min_cycle;Max_cycle;Signal;HPM_P1;HPM_P2
2022/06/27 00:00:31;;;;;;;12.02;7.10;;;;;;;;;;4995521;28;20037;-78
2022/06/27 00:02:57;;;;;;;13.48;6.55;;;;;;;;;;5015632;28;20033;-78
2022/06/27 00:05:22;;;;;;;15.50;6.90;;;;;;;;;;5022438;28;20439;-78
2022/06/27 00:07:47;;;;;;;10.60;6.30;;;;;;;;;;5023087;28;20025;-78
2022/06/27 00:10:13;;;;;;;11.43;5.93;;;;;;;;;;5012289;28;20030;-78
2022/06/27 00:12:39;;;;;;;12.13;5.90;;;;;;;;;;5011959;28;20481;-78
2022/06/27 00:15:05;;;;;;;15.20;6.50;;;;;;;;;;5027786;28;20052;-78
2022/06/27 00:17:31;;;;;;;14.80;6.50;;;;;;;;;;5020907;28;20029;-79
2022/06/27 00:19:57;;;;;;;15.38;6.85;;;;;;;;;;5014732;28;20112;-77
2022/06/27 00:22:22;;;;;;;14.73;6.68;;;;;;;;;;5014609;28;20102;-79
2022/06/27 00:24:48;;;;;;;13.07;6.07;;;;;;;;;;5009435;28;20518;-77
2022/06/27 00:27:13;;;;;;;11.55;6.53;;;;;;;;;;5011824;28;20061;-78
2022/06/27 00:29:41;;;;;;;13.85;6.55;;;;;;;;;;5023642;28;20030;-79
2022/06/27 00:32:07;;;;;;;12.98;6.97;;;;;;;;;;4989282;28;20031;-78
2022/06/27 00:34:32;;;;;;;13.52;7.15;;;;;;;;;;4986084;28;20492;-78
2022/06/27 00:36:58;;;;;;;12.77;6.57;;;;;;;;;;4993465;28;20032;-78
2022/06/27 00:39:23;;;;;;;12.25;6.95;;;;;;;;;;4993678;28;20116;-78
2022/06/27 00:41:49;;;;;;;12.70;6.60;;;;;;;;;;4991948;28;20022;-78
2022/06/27 00:44:34;;;;;;;13.60;7.05;;;;;;;;;;5009081;28;20081;-79
2022/06/27 00:46:59;;;;;;;10.23;6.22;;;;;;;;;;5008406;28;20100;-77
2022/06/27 00:49:25;;;;;;;10.85;5.78;;;;;;;;;;4993580;28;20034;-79
2022/06/27 00:51:51;;;;;;;11.45;6.03;;;;;;;;;;5008499;28;20085;-79
2022/06/27 00:54:16;;;;;;;10.35;6.10;;;;;;;;;;5012947;28;20014;-78
2022/06/27 00:56:41;;;;;;;11.82;6.22;;;;;;;;;;5011526;28;20045;-79
2022/06/27 00:59:07;;;;;;;8.13;5.55;;;;;;;;;;5009127;28;20026;-77
2022/06/27 01:01:32;;;;;;;7.60;6.05;;;;;;;;;;5011727;28;20026;-78
2022/06/27 01:04:00;;;;;;;7.72;5.63;;;;;;;;;;5010157;28;20508;-79
2022/06/27 01:06:29;;;;;;;10.30;5.85;;;;;;;;;;5010575;28;20033;-78
2022/06/27 01:08:54;;;;;;;8.88;5.80;;;;;;;;;;5024755;28;20030;-79
2022/06/27 01:11:20;;;;;;;9.18;5.53;;;;;;;;;;4986567;28;20031;-78
2022/06/27 01:13:46;;;;;;;8.48;6.22;;;;;;;;;;4993310;28;20038;-78
2022/06/27 01:16:11;;;;;;;7.35;5.88;;;;;;;;;;4986412;28;20033;-79
2022/06/27 01:18:37;;;;;;;7.72;6.20;;;;;;;;;;4982678;28;20435;-77
2022/06/27 01:21:02;;;;;;;8.02;5.85;;;;;;;;;;5012142;28;20044;-79
2022/06/27 01:23:28;;;;;;;7.20;5.72;;;;;;;;;;4993839;28;20081;-78
2022/06/27 01:25:54;;;;;;;7.43;5.72;;;;;;;;;;5012685;28;20396;-78
2022/06/27 01:28:21;;;;;;;10.25;6.30;;;;;;;;;;5011688;28;20376;-79
2022/06/27 01:30:47;;;;;;;9.43;6.07;;;;;;;;;;5013007;28;20128;-78
2022/06/27 01:33:13;;;;;;;10.02;6.10;;;;;;;;;;5014968;28;20026;-78
2022/06/27 01:35:38;;;;;;;10.80;6.20;;;;;;;;;;5016450;28;20422;-78
2022/06/27 01:38:05;;;;;;;7.85;5.82;;;;;;;;;;4997639;28;20172;-78
2022/06/27 01:40:30;;;;;;;10.93;6.20;;;;;;;;;;5016207;28;20064;-78
2022/06/27 01:42:57;;;;;;;9.52;6.40;;;;;;;;;;5014868;28;20034;-78
2022/06/27 01:45:23;;;;;;;8.95;6.50;;;;;;;;;;5014733;28;20030;-78
2022/06/27 01:47:48;;;;;;;9.10;6.38;;;;;;;;;;5014769;28;20050;-77
2022/06/27 01:50:14;;;;;;;11.20;6.30;;;;;;;;;;5016225;28;20034;-78
2022/06/27 01:52:43;;;;;;;9.75;5.93;;;;;;;;;;4995080;28;20030;-78
2022/06/27 01:55:09;;;;;;;6.47;5.32;;;;;;;;;;5019304;28;20388;-78
2022/06/27 01:57:36;;;;;;;8.88;5.85;;;;;;;;;;4999281;28;20017;-77
2022/06/27 02:00:04;;;;;;;7.85;6.28;;;;;;;;;;5032915;28;20033;-78
2022/06/27 02:02:40;;;;;;;6.43;5.53;;;;;;;;;;5000364;28;20030;-78
2022/06/27 02:05:06;;;;;;;7.63;5.97;;;;;;;;;;5033157;28;20040;-77
2022/06/27 02:07:32;;;;;;;8.32;5.72;;;;;;;;;;5032619;28;20408;-78
2022/06/27 02:09:57;;;;;;;8.02;6.07;;;;;;;;;;5033088;28;20033;-78
2022/06/27 02:12:23;;;;;;;7.15;5.70;;;;;;;;;;5031702;28;20061;-78
2022/06/27 02:14:51;;;;;;;6.68;5.38;;;;;;;;;;5032040;28;20132;-77
2022/06/27 02:17:20;;;;;;;8.30;5.80;;;;;;;;;;5016163;28;20051;-78
2022/06/27 02:19:46;;;;;;;9.85;5.97;;;;;;;;;;5015718;28;20524;-78
2022/06/27 02:22:13;;;;;;;9.55;6.22;;;;;;;;;;4998001;28;20034;-77
2022/06/27 02:24:39;;;;;;;9.20;7.60;;;;;;;;;;5015007;28;20049;-78
2022/06/27 02:27:04;;;;;;;8.93;6.07;;;;;;;;;;5015617;28;20042;-78
2022/06/27 02:29:30;;;;;;;7.80;5.70;;;;;;;;;;5015033;28;20404;-78
2022/06/27 02:31:59;;;;;;;8.50;5.70;;;;;;;;;;5013626;28;20021;-77
2022/06/27 02:34:24;;;;;;;8.15;5.55;;;;;;;;;;5020674;28;20507;-78
2022/06/27 02:36:50;;;;;;;7.32;5.78;;;;;;;;;;5014490;28;20022;-78
2022/06/27 02:39:16;;;;;;;7.68;5.95;;;;;;;;;;5022884;28;20121;-78
2022/06/27 02:41:42;;;;;;;6.38;5.70;;;;;;;;;;5013890;28;20080;-78
2022/06/27 02:44:08;;;;;;;7.20;6.28;;;;;;;;;;5016925;28;20041;-78
2022/06/27 02:46:34;;;;;;;6.40;5.53;;;;;;;;;;5018530;28;20542;-79
2022/06/27 02:48:59;;;;;;;9.23;6.18;;;;;;;;;;5013649;28;20034;-79
2022/06/27 02:51:25;;;;;;;9.73;6.45;;;;;;;;;;5005297;28;20017;-79
2022/06/27 02:54:04;;;;;;;9.00;6.28;;;;;;;;;;5015605;28;20125;-77
2022/06/27 02:56:56;;;;;;;7.95;6.40;;;;;;;;;;4999264;28;20100;-79
2022/06/27 02:59:23;;;;;;;8.35;6.20;;;;;;;;;;5017313;28;20128;-78
2022/06/27 03:01:49;;;;;;;13.70;6.75;;;;;;;;;;5015338;28;20117;-79
2022/06/27 03:04:18;;;;;;;8.15;6.50;;;;;;;;;;5014454;28;20037;-78
2022/06/27 03:06:46;;;;;;;8.02;6.43;;;;;;;;;;5015656;28;20029;-78
2022/06/27 03:09:11;;;;;;;11.88;6.55;;;;;;;;;;4985815;28;20128;-75
2022/06/27 03:11:37;;;;;;;9.15;7.25;;;;;;;;;;5031312;28;20049;-78
2022/06/27 03:14:02;;;;;;;12.93;8.10;;;;;;;;;;5011947;28;20075;-77
2022/06/27 03:16:28;;;;;;;11.80;8.43;;;;;;;;;;5016839;28;20396;-77
2022/06/27 03:18:55;;;;;;;8.25;7.40;;;;;;;;;;5018848;28;20033;-78
2022/06/27 03:21:42;;;;;;;8.90;7.75;;;;;;;;;;4986329;28;20377;-78
2022/06/27 03:24:09;;;;;;;13.02;7.00;;;;;;;;;;4997959;28;20062;-78
2022/06/27 03:26:34;;;;;;;7.60;6.55;;;;;;;;;;5014505;28;20476;-78
2022/06/27 03:29:02;;;;;;;12.68;7.50;;;;;;;;;;4997958;28;20033;-79
2022/06/27 03:31:27;;;;;;;10.95;8.02;;;;;;;;;;5014105;28;20152;-79
2022/06/27 03:33:54;;;;;;;13.13;7.72;;;;;;;;;;5013859;28;20045;-79
2022/06/27 03:36:29;;;;;;;10.68;9.13;;;;;;;;;;4985124;28;20115;-79
2022/06/27 03:38:55;;;;;;;14.65;8.60;;;;;;;;;;5013837;28;20101;-79
2022/06/27 03:41:21;;;;;;;12.85;8.95;;;;;;;;;;5016128;28;20033;-79
2022/06/27 03:43:47;;;;;;;10.27;9.18;;;;;;;;;;4997361;28;20405;-79
2022/06/27 03:46:13;;;;;;;12.35;9.25;;;;;;;;;;4982603;28;20022;-79
2022/06/27 03:51:49;;;;;;;13.27;10.00;;;;;;;;;;4998960;28;20030;-79
2022/06/27 03:54:14;;;;;;;12.63;9.95;;;;;;;;;;5001121;28;20041;-78
2022/06/27 03:56:40;;;;;;;14.00;10.73;;;;;;;;;;4988883;28;20030;-78
2022/06/27 03:59:05;;;;;;;12.82;9.98;;;;;;;;;;4988211;28;20511;-78
2022/06/27 04:01:31;;;;;;;13.10;10.48;;;;;;;;;;5001508;28;20026;-80
2022/06/27 04:03:57;;;;;;;14.80;10.52;;;;;;;;;;5005077;28;20148;-79
2022/06/27 04:06:25;;;;;;;13.75;10.38;;;;;;;;;;5011390;28;20029;-79
2022/06/27 04:08:51;;;;;;;16.27;10.88;;;;;;;;;;5011586;28;20033;-78
2022/06/27 04:11:16;;;;;;;14.40;10.65;;;;;;;;;;5001744;28;20018;-79
2022/06/27 04:13:46;;;;;;;11.27;9.82;;;;;;;;;;5013040;28;20128;-79
2022/06/27 04:16:43;;;;;;;12.25;9.98;;;;;;;;;;4981766;28;20038;-79
2022/06/27 04:19:21;;;;;;;12.90;9.95;;;;;;;;;;5013453;28;20045;-80
2022/06/27 04:22:05;;;;;;;12.63;9.68;;;;;;;;;;4993063;28;20104;-79
2022/06/27 04:24:59;;;;;;;10.80;8.93;;;;;;;;;;4991269;28;20532;-78
2022/06/27 04:27:51;;;;;;;10.90;8.82;;;;;;;;;;5013530;28;20100;-80
2022/06/27 04:30:18;;;;;;;9.95;8.93;;;;;;;;;;5030240;28;20484;-79
2022/06/27 04:32:44;;;;;;;9.38;8.27;;;;;;;;;;5001846;28;20030;-79
2022/06/27 04:35:10;;;;;;;17.92;13.23;;;;;;;;;;5026809;28;20040;-77
2022/06/27 04:37:40;;;;;;;11.95;10.70;;;;;;;;;;4995899;28;20029;-79
2022/06/27 04:40:35;;;;;;;12.73;8.70;;;;;;;;;;5021936;28;20144;-79
2022/06/27 04:43:01;;;;;;;10.27;8.65;;;;;;;;;;5010605;28;20041;-79
2022/06/27 04:45:27;;;;;;;10.68;7.90;;;;;;;;;;5027291;28;20530;-79
2022/06/27 04:48:05;;;;;;;11.40;8.23;;;;;;;;;;5013439;28;20068;-79
2022/06/27 04:50:30;;;;;;;11.63;8.20;;;;;;;;;;5024060;28;20030;-78
2022/06/27 04:53:00;;;;;;;18.17;8.07;;;;;;;;;;5007469;28;20045;-78
2022/06/27 04:55:26;;;;;;;11.35;8.02;;;;;;;;;;5023707;28;20041;-78
2022/06/27 04:57:52;;;;;;;10.38;7.90;;;;;;;;;;4996766;28;20030;-79
2022/06/27 05:00:18;;;;;;;10.00;8.15;;;;;;;;;;4986119;28;20124;-79
2022/06/27 05:03:12;;;;;;;9.60;7.85;;;;;;;;;;5004157;28;20504;-78
2022/06/27 05:05:43;;;;;;;9.50;8.55;;;;;;;;;;4994102;28;20442;-79
2022/06/27 05:08:08;;;;;;;9.20;7.38;;;;;;;;;;5027980;28;20040;-79
2022/06/27 05:10:36;;;;;;;9.70;7.18;;;;;;;;;;5013499;28;20075;-79
2022/06/27 05:13:02;;;;;;;13.55;7.65;;;;;;;;;;4996960;28;20038;-76
2022/06/27 05:15:29;;;;;;;8.57;7.50;;;;;;;;;;5006029;28;20471;-78
2022/06/27 05:17:56;;;;;;;10.18;6.88;;;;;;;;;;4992523;28;20045;-76
2022/06/27 05:20:22;;;;;;;9.55;7.20;;;;;;;;;;5013371;28;20124;-76
2022/06/27 05:22:48;;;;;;;10.52;7.00;;;;;;;;;;5010412;28;20041;-77
2022/06/27 05:25:13;;;;;;;11.48;7.18;;;;;;;;;;5028107;28;20053;-77
2022/06/27 05:27:40;;;;;;;9.48;6.95;;;;;;;;;;5012470;28;20033;-74
2022/06/27 05:30:06;;;;;;;7.60;6.75;;;;;;;;;;5016289;28;20030;-78
2022/06/27 05:32:34;;;;;;;8.85;6.78;;;;;;;;;;5013295;28;20037;-77
2022/06/27 05:35:00;;;;;;;11.65;7.25;;;;;;;;;;4991948;28;20084;-77
2022/06/27 05:37:26;;;;;;;7.78;6.88;;;;;;;;;;5020399;28;20041;-78
2022/06/27 05:39:52;;;;;;;7.88;7.10;;;;;;;;;;5010036;28;20034;-79
2022/06/27 05:42:18;;;;;;;7.43;6.65;;;;;;;;;;5019692;28;20040;-79
2022/06/27 05:44:44;;;;;;;9.27;7.05;;;;;;;;;;5010304;28;20022;-77
2022/06/27 05:47:11;;;;;;;8.77;6.70;;;;;;;;;;5004742;28;20038;-77
2022/06/27 05:49:55;;;;;;;8.77;6.75;;;;;;;;;;5009612;28;20083;-78
2022/06/27 05:52:22;;;;;;;8.18;6.20;;;;;;;;;;5021433;28;20455;-78
2022/06/27 05:54:48;;;;;;;8.75;6.20;;;;;;;;;;5016197;28;20018;-77
2022/06/27 05:57:15;;;;;;;8.75;5.93;;;;;;;;;;5017557;28;20421;-79
2022/06/27 05:59:41;;;;;;;7.53;6.38;;;;;;;;;;5013625;28;20022;-77
2022/06/27 06:02:07;;;;;;;7.57;6.25;;;;;;;;;;4997681;28;20042;-78
2022/06/27 06:04:37;;;;;;;14.25;6.43;;;;;;;;;;5012549;28;20022;-78
2022/06/27 06:07:04;;;;;;;10.98;6.10;;;;;;;;;;5013128;28;20084;-77
2022/06/27 06:09:32;;;;;;;7.53;6.22;;;;;;;;;;4997356;28;20096;-77
2022/06/27 06:11:57;;;;;;;11.02;7.05;;;;;;;;;;4996831;28;20523;-77
2022/06/27 06:14:26;;;;;;;8.35;6.10;;;;;;;;;;5013174;28;20022;-76
2022/06/27 06:16:53;;;;;;;9.55;6.85;;;;;;;;;;4983991;28;20082;-77
2022/06/27 06:19:19;;;;;;;10.35;7.07;;;;;;;;;;5013646;28;20112;-76
2022/06/27 06:21:45;;;;;;;8.88;6.03;;;;;;;;;;5014326;28;20091;-77
2022/06/27 06:24:10;;;;;;;8.63;6.40;;;;;;;;;;4997905;28;20050;-79
2022/06/27 06:26:36;;;;;;;8.70;6.55;;;;;;;;;;5013007;28;20034;-79
2022/06/27 06:29:12;;;;;;;12.25;8.18;;;;;;;;;;5013009;28;20451;-76
2022/06/27 06:31:41;;;;;;;6.47;5.78;;;;;;;;;;4998168;28;20413;-76
2022/06/27 06:34:09;;;;;;;9.27;6.60;;;;;;;;;;5002691;28;20036;-78
2022/06/27 06:36:36;;;;;;;8.32;7.10;;;;;;;;;;5021925;28;20038;-78
2022/06/27 06:39:02;;;;;;;8.23;7.40;;;;;;;;;;5014356;28;20026;-77
2022/06/27 06:41:28;;;;;;;11.80;7.93;;;;;;;;;;4990443;28;20052;-78
2022/06/27 06:43:54;;;;;;;13.30;7.43;;;;;;;;;;5015956;28;20033;-79
2022/06/27 06:46:43;;;;;;;15.35;7.88;;;;;;;;;;5006212;28;20531;-77
2022/06/27 06:49:14;;;;;;;13.60;7.35;;;;;;;;;;4995943;28;20117;-78
2022/06/27 06:51:42;;;;;;;10.00;7.88;;;;;;;;;;5013174;28;20117;-78
2022/06/27 06:54:07;;;;;;;9.80;7.20;;;;;;;;;;5017132;28;20109;-77
2022/06/27 06:56:33;;;;;;;16.15;7.60;;;;;;;;;;5005893;28;20176;-77
2022/06/27 06:58:59;;;;;;;12.32;8.20;;;;;;;;;;5027878;28;20033;-77
2022/06/27 07:01:25;;;;;;;16.13;8.45;;;;;;;;;;5032750;28;20033;-82
2022/06/27 07:03:51;;;;;;;11.80;7.00;;;;;;;;;;5014684;28;20126;-82
2022/06/27 07:06:17;;;;;;;9.63;7.22;;;;;;;;;;5032072;28;20076;-78
2022/06/27 07:08:46;;;;;;;12.68;7.90;;;;;;;;;;5032260;28;20511;-77
2022/06/27 07:11:11;;;;;;;9.77;6.70;;;;;;;;;;5014312;28;20028;-77
2022/06/27 07:13:38;;;;;;;10.77;7.00;;;;;;;;;;5030971;28;20029;-77
2022/06/27 07:16:05;;;;;;;13.73;6.85;;;;;;;;;;5013150;28;20057;-77
2022/06/27 07:18:31;;;;;;;13.85;6.38;;;;;;;;;;5014727;28;20025;-77
2022/06/27 07:20:57;;;;;;;11.10;6.63;;;;;;;;;;4985627;28;20045;-78
2022/06/27 07:23:22;;;;;;;8.88;6.15;;;;;;;;;;5017812;28;20466;-76
2022/06/27 07:25:48;;;;;;;9.50;6.10;;;;;;;;;;5028856;28;20048;-76
2022/06/27 07:28:16;;;;;;;6.72;6.07;;;;;;;;;;5023778;28;20025;-77
2022/06/27 07:30:42;;;;;;;9.98;5.97;;;;;;;;;;5019258;28;20370;-77
2022/06/27 07:33:08;;;;;;;10.23;6.45;;;;;;;;;;5023542;28;20079;-77
2022/06/27 07:35:33;;;;;;;9.40;6.38;;;;;;;;;;5024924;28;20033;-78
2022/06/27 07:38:00;;;;;;;7.45;6.05;;;;;;;;;;5008033;28;20045;-79
2022/06/27 07:40:25;;;;;;;8.80;6.00;;;;;;;;;;5019897;28;20042;-78
2022/06/27 07:42:51;;;;;;;9.95;6.10;;;;;;;;;;4995364;28;20033;-77
2022/06/27 07:45:18;;;;;;;5.97;5.32;;;;;;;;;;5020935;28;20101;-77
2022/06/27 07:47:44;;;;;;;9.10;5.13;;;;;;;;;;5026275;28;20025;-78
2022/06/27 07:50:10;;;;;;;8.00;5.78;;;;;;;;;;5005601;28;20432;-79
2022/06/27 07:55:21;;;;;;;10.27;4.95;;;;;;;;;;5018086;28;20489;-77
2022/06/27 07:57:48;;;;;;;7.10;4.78;;;;;;;;;;5007121;28;20041;-78
2022/06/27 08:00:14;;;;;;;9.25;4.78;;;;;;;;;;5028340;28;20411;-79
2022/06/27 08:02:40;;;;;;;9.50;4.90;;;;;;;;;;5024186;28;20120;-77
2022/06/27 08:05:05;;;;;;;5.97;4.60;;;;;;;;;;5028042;28;20116;-77
2022/06/27 08:07:31;;;;;;;8.23;4.80;;;;;;;;;;5007999;28;20026;-77
2022/06/27 08:09:56;;;;;;;10.20;4.55;;;;;;;;;;5016911;28;20071;-77
2022/06/27 08:12:22;;;;;;;7.25;4.45;;;;;;;;;;5027405;28;20038;-78
2022/06/27 08:14:49;;;;;;;6.13;4.00;;;;;;;;;;5004930;28;20036;-77
2022/06/27 08:17:14;;;;;;;5.20;4.15;;;;;;;;;;5021338;28;20144;-77
2022/06/27 08:19:40;;;;;;;5.05;3.97;;;;;;;;;;5024499;28;20153;-76
2022/06/27 08:22:06;;;;;;;7.30;4.18;;;;;;;;;;5005203;28;20167;-75
2022/06/27 08:24:31;;;;;;;4.95;4.28;;;;;;;;;;5002166;28;20056;-77
2022/06/27 08:26:58;;;;;;;4.47;3.75;;;;;;;;;;5005880;28;20030;-78
2022/06/27 08:29:24;;;;;;;5.78;3.80;;;;;;;;;;4984903;28;20113;-78
2022/06/27 08:31:52;;;;;;;4.93;3.85;;;;;;;;;;5010806;28;20049;-78
2022/06/27 08:34:18;;;;;;;4.57;3.80;;;;;;;;;;5011770;28;20041;-78
2022/06/27 08:36:43;;;;;;;8.55;4.30;;;;;;;;;;5018568;28;20053;-77
2022/06/27 08:39:11;;;;;;;7.45;4.63;;;;;;;;;;5011408;28;20037;-76
2022/06/27 08:41:37;;;;;;;4.85;4.07;;;;;;;;;;5001001;28;20034;-78
2022/06/27 08:44:04;;;;;;;5.97;4.32;;;;;;;;;;4994349;28;20526;-78
2022/06/27 08:46:29;;;;;;;5.40;4.13;;;;;;;;;;4994108;28;20025;-77
2022/06/27 08:48:55;;;;;;;6.60;4.03;;;;;;;;;;5011873;28;20038;-77
2022/06/27 08:51:20;;;;;;;5.68;4.28;;;;;;;;;;4996750;28;20449;-80
2022/06/27 08:53:46;;;;;;;5.32;4.30;;;;;;;;;;4992801;28;20034;-76
2022/06/27 08:56:13;;;;;;;5.47;4.07;;;;;;;;;;5006635;28;20030;-77
2022/06/27 08:58:38;;;;;;;5.47;4.28;;;;;;;;;;5011222;28;20060;-79
2022/06/27 09:01:04;;;;;;;5.85;4.10;;;;;;;;;;5007122;28;20037;-78
2022/06/27 09:03:30;;;;;;;7.07;3.80;;;;;;;;;;5021554;28;20041;-78
2022/06/27 09:05:59;;;;;;;7.18;4.25;;;;;;;;;;5016710;28;20065;-76
2022/06/27 09:08:28;;;;;;;7.32;3.90;;;;;;;;;;5020407;28;20061;-78
2022/06/27 09:10:54;;;;;;;5.72;4.10;;;;;;;;;;5025654;28;20018;-77
2022/06/27 09:13:20;;;;;;;4.32;3.92;;;;;;;;;;5005574;28;20546;-80
2022/06/27 09:15:52;;;;;;;4.53;3.53;;;;;;;;;;4996356;28;20033;-81
2022/06/27 09:18:25;;;;;;;4.25;3.85;;;;;;;;;;4987709;28;20040;-77
2022/06/27 09:20:51;;;;;;;5.20;3.90;;;;;;;;;;5019043;28;20037;-79
2022/06/27 09:23:26;;;;;;;5.68;4.20;;;;;;;;;;5018807;28;20076;-77
2022/06/27 09:25:52;;;;;;;;;;;;;;;;;;5008381;28;20136;-78
2022/06/27 09:28:19;;;;;;;6.32;4.30;;;;;;;;;;5013433;28;20000;-80
2022/06/27 09:30:46;;;;;;;4.18;3.65;;;;;;;;;;5005002;28;20563;-76
2022/06/27 09:33:11;;;;;;;5.07;3.90;;;;;;;;;;4986235;28;20018;-79
2022/06/27 09:35:38;;;;;;;5.38;4.15;;;;;;;;;;5019054;28;20412;-79
2022/06/27 09:38:04;;;;;;;6.88;3.83;;;;;;;;;;5021596;28;20029;-77
2022/06/27 09:40:32;;;;;;;8.20;4.20;;;;;;;;;;5017313;28;20030;-77
2022/06/27 09:42:58;;;;;;;5.20;4.00;;;;;;;;;;5017082;28;20036;-77
2022/06/27 09:45:24;;;;;;;5.47;3.80;;;;;;;;;;5016215;28;20026;-78
2022/06/27 09:47:51;;;;;;;5.50;3.75;;;;;;;;;;5013304;28;20461;-79
2022/06/27 09:50:16;;;;;;;6.78;4.53;;;;;;;;;;5015803;28;20050;-79
2022/06/27 09:52:42;;;;;;;7.50;4.35;;;;;;;;;;4997263;28;20527;-79
2022/06/27 09:55:08;;;;;;;4.55;3.90;;;;;;;;;;5018409;28;20037;-82
2022/06/27 09:57:34;;;;;;;6.68;4.00;;;;;;;;;;5012199;28;20032;-80
2022/06/27 10:00:00;;;;;;;5.45;3.80;;;;;;;;;;5025820;28;20034;-78
2022/06/27 10:02:26;;;;;;;5.00;3.97;;;;;;;;;;5023882;28;20056;-77
2022/06/27 10:04:52;;;;;;;5.35;4.00;;;;;;;;;;5011536;28;20211;-78
2022/06/27 10:07:17;;;;;;;4.80;4.30;;;;;;;;;;5012448;28;20152;-80
2022/06/27 10:09:43;;;;;;;5.18;3.75;;;;;;;;;;5009629;28;20030;-79
2022/06/27 10:12:22;;;;;;;5.55;4.25;;;;;;;;;;5012937;28;20440;-78
2022/06/27 10:15:06;;;;;;;6.30;3.83;;;;;;;;;;5022973;28;20493;-80
2022/06/27 10:17:32;;;;;;;6.93;4.00;;;;;;;;;;5029081;28;20442;-79
2022/06/27 10:20:01;;;;;;;4.35;3.95;;;;;;;;;;5022961;28;20128;-78
2022/06/27 10:22:26;;;;;;;5.78;3.60;;;;;;;;;;5022103;28;20084;-77
2022/06/27 10:24:52;;;;;;;4.43;4.03;;;;;;;;;;5025181;28;20125;-80
2022/06/27 10:27:29;;;;;;;4.63;4.03;;;;;;;;;;5002839;28;20033;-78
2022/06/27 10:29:55;;;;;;;4.20;3.80;;;;;;;;;;5023473;28;20044;-80
2022/06/27 10:32:36;;;;;;;4.82;3.95;;;;;;;;;;5027341;28;20026;-77
2022/06/27 10:35:01;;;;;;;6.07;3.80;;;;;;;;;;5023487;28;20121;-77
2022/06/27 10:37:27;;;;;;;7.85;4.25;;;;;;;;;;5027520;28;20503;-78
2022/06/27 10:40:11;;;;;;;4.13;3.65;;;;;;;;;;5024617;28;20045;-79
2022/06/27 10:42:46;;;;;;;4.57;3.83;;;;;;;;;;5027821;28;20128;-77
2022/06/27 10:45:21;;;;;;;4.55;3.80;;;;;;;;;;5005580;28;20058;-79
2022/06/27 10:47:47;;;;;;;5.35;3.85;;;;;;;;;;5006472;28;20033;-78
2022/06/27 10:50:13;;;;;;;5.18;4.13;;;;;;;;;;4986923;28;20029;-78
2022/06/27 10:52:38;;;;;;;4.50;3.70;;;;;;;;;;4977133;28;20043;-79
2022/06/27 10:55:24;;;;;;;6.35;4.40;;;;;;;;;;5016367;28;20033;-78
2022/06/27 10:57:50;;;;;;;6.97;4.07;;;;;;;;;;5018512;28;20038;-77
2022/06/27 11:00:34;;;;;;;6.22;3.90;;;;;;;;;;5015033;28;20029;-79
2022/06/27 11:03:00;;;;;;;5.13;4.13;;;;;;;;;;5032260;28;20163;-77
2022/06/27 11:05:26;;;;;;;4.75;3.72;;;;;;;;;;5032571;28;20068;-78
2022/06/27 11:07:55;;;;;;;5.03;4.53;;;;;;;;;;5031200;28;20038;-76
2022/06/27 11:10:20;;;;;;;7.05;4.38;;;;;;;;;;5030839;28;20538;-78
2022/06/27 11:12:46;;;;;;;6.53;4.07;;;;;;;;;;5028189;28;20042;-77
2022/06/27 11:15:11;;;;;;;5.55;4.30;;;;;;;;;;5019626;28;20043;-78
2022/06/27 11:17:38;;;;;;;6.60;4.50;;;;;;;;;;5009487;28;20515;-78
2022/06/27 11:20:07;;;;;;;8.68;4.55;;;;;;;;;;5025520;28;20048;-78
2022/06/27 11:22:33;;;;;;;7.57;4.90;;;;;;;;;;5028583;28;20475;-77
2022/06/27 11:24:58;;;;;;;4.88;4.35;;;;;;;;;;4978072;28;20062;-77
2022/06/27 11:27:24;;;;;;;5.22;4.10;;;;;;;;;;5001209;28;20037;-77
2022/06/27 11:32:33;;;;;;;5.55;4.20;;;;;;;;;;4995346;28;20412;-79
2022/06/27 11:34:58;;;;;;;5.13;4.63;;;;;;;;;;5017909;28;20473;-79
2022/06/27 11:37:24;;;;;;;5.45;4.95;;;;;;;;;;5005128;28;20058;-78
2022/06/27 11:40:02;;;;;;;4.70;4.30;;;;;;;;;;5004772;28;20374;-77
2022/06/27 11:42:31;;;;;;;5.47;4.90;;;;;;;;;;5020946;28;20144;-79
2022/06/27 11:45:03;;;;;;;5.75;4.15;;;;;;;;;;4986871;28;20022;-78
2022/06/27 11:47:29;;;;;;;4.47;4.05;;;;;;;;;;5005006;28;20036;-77
2022/06/27 11:50:02;;;;;;;5.50;4.07;;;;;;;;;;5005473;28;20435;-80
2022/06/27 11:52:34;;;;;;;4.50;4.10;;;;;;;;;;5013271;28;20486;-79
2022/06/27 11:55:05;;;;;;;4.95;4.45;;;;;;;;;;4995626;28;20108;-77
2022/06/27 11:57:34;;;;;;;4.80;4.32;;;;;;;;;;5010360;28;20034;-78
2022/06/27 12:00:00;;;;;;;5.63;4.53;;;;;;;;;;5017829;28;20038;-79
2022/06/27 12:02:28;;;;;;;4.57;4.18;;;;;;;;;;5007724;28;20077;-79
2022/06/27 12:05:07;;;;;;;5.60;4.63;;;;;;;;;;5011986;28;20081;-78
2022/06/27 12:07:48;;;;;;;6.75;4.50;;;;;;;;;;5009980;28;20409;-82
2022/06/27 12:10:14;;;;;;;5.25;4.28;;;;;;;;;;5011796;28;20037;-81
2022/06/27 12:12:43;;;;;;;5.60;4.65;;;;;;;;;;4996699;28;20164;-77
2022/06/27 12:15:09;;;;;;;5.97;4.97;;;;;;;;;;5010065;28;20123;-79
2022/06/27 12:17:38;;;;;;;6.35;4.60;;;;;;;;;;4997848;28;20081;-77
2022/06/27 12:20:07;;;;;;;6.40;4.30;;;;;;;;;;5000522;28;20436;-79
2022/06/27 12:22:33;;;;;;;5.43;4.47;;;;;;;;;;4999795;28;20038;-79
2022/06/27 12:24:58;;;;;;;5.85;4.68;;;;;;;;;;5009724;28;20064;-79
2022/06/27 12:27:24;;;;;;;7.68;4.60;;;;;;;;;;5018296;28;20032;-78
2022/06/27 12:29:49;;;;;;;5.43;4.63;;;;;;;;;;4998231;28;20053;-78
2022/06/27 12:32:15;;;;;;;4.85;4.13;;;;;;;;;;5002226;28;20030;-77
2022/06/27 12:34:40;;;;;;;6.57;4.47;;;;;;;;;;4997970;28;20109;-78
2022/06/27 12:37:06;;;;;;;5.88;4.88;;;;;;;;;;5000147;28;20026;-79
2022/06/27 12:39:31;;;;;;;4.88;4.38;;;;;;;;;;5000629;28;20532;-77
2022/06/27 12:41:57;;;;;;;5.28;4.57;;;;;;;;;;4996962;28;20077;-79
2022/06/27 12:44:22;;;;;;;5.82;4.72;;;;;;;;;;5002926;28;20037;-78
2022/06/27 12:46:48;;;;;;;7.70;4.60;;;;;;;;;;5013231;28;20033;-78
2022/06/27 12:49:13;;;;;;;7.80;5.10;;;;;;;;;;5000494;28;20072;-78
2022/06/27 12:51:39;;;;;;;6.80;5.10;;;;;;;;;;4994645;28;20556;-79
2022/06/27 12:54:04;;;;;;;6.32;5.72;;;;;;;;;;4995628;28;20029;-82
2022/06/27 12:56:30;;;;;;;5.70;5.10;;;;;;;;;;4985513;28;20386;-78
2022/06/27 12:58:55;;;;;;;7.93;6.00;;;;;;;;;;5004888;28;20109;-78
2022/06/27 13:01:21;;;;;;;7.75;5.50;;;;;;;;;;5025444;28;20037;-79
2022/06/27 13:03:46;;;;;;;7.78;6.03;;;;;;;;;;4996173;28;20053;-76
2022/06/27 13:06:12;;;;;;;6.20;5.68;;;;;;;;;;5003629;28;20034;-78
2022/06/27 13:08:37;;;;;;;7.05;6.13;;;;;;;;;;5014813;28;20041;-78
2022/06/27 13:11:03;;;;;;;11.85;6.20;;;;;;;;;;5007358;28;20041;-78
2022/06/27 13:13:28;;;;;;;7.60;6.00;;;;;;;;;;5024366;28;20105;-78
2022/06/27 13:15:54;;;;;;;7.30;6.20;;;;;;;;;;5009309;28;20045;-79
2022/06/27 13:18:19;;;;;;;7.88;6.35;;;;;;;;;;5006867;28;20104;-76
2022/06/27 13:20:45;;;;;;;9.25;6.20;;;;;;;;;;5009525;28;20477;-77
2022/06/27 13:23:11;;;;;;;6.50;5.80;;;;;;;;;;5006702;28;20022;-77
2022/06/27 13:25:36;;;;;;;9.82;5.95;;;;;;;;;;5008284;28;20085;-77
2022/06/27 13:28:02;;;;;;;6.45;5.75;;;;;;;;;;5010877;28;20060;-77
2022/06/27 13:30:27;;;;;;;7.03;5.38;;;;;;;;;;5011790;28;20462;-78
2022/06/27 13:32:53;;;;;;;6.50;5.90;;;;;;;;;;5028421;28;20112;-78
2022/06/27 13:35:19;;;;;;;6.18;5.60;;;;;;;;;;4997800;28;20444;-80
2022/06/27 13:37:44;;;;;;;7.97;5.45;;;;;;;;;;5010003;28;20057;-79
2022/06/27 13:40:10;;;;;;;6.57;5.70;;;;;;;;;;5022894;28;20124;-79
2022/06/27 13:42:35;;;;;;;8.45;5.60;;;;;;;;;;5004041;28;20489;-76
2022/06/27 13:45:01;;;;;;;7.47;5.40;;;;;;;;;;4997234;28;20033;-79
2022/06/27 13:47:26;;;;;;;7.88;5.93;;;;;;;;;;4995854;28;20548;-80
2022/06/27 13:49:54;;;;;;;8.82;5.95;;;;;;;;;;4995596;28;20042;-78
2022/06/27 13:52:19;;;;;;;7.45;5.97;;;;;;;;;;5010452;28;20448;-78
2022/06/27 13:54:45;;;;;;;9.48;5.63;;;;;;;;;;5018880;28;20034;-78
2022/06/27 13:57:10;;;;;;;6.63;5.75;;;;;;;;;;5028124;28;20028;-80
2022/06/27 13:59:36;;;;;;;5.80;5.30;;;;;;;;;;5029265;28;20055;-79
2022/06/27 14:02:02;;;;;;;6.53;5.93;;;;;;;;;;5013828;28;20033;-78
2022/06/27 14:04:27;;;;;;;8.02;5.70;;;;;;;;;;5009895;28;20030;-78
2022/06/27 14:09:37;;;;;;;6.50;5.53;;;;;;;;;;4998682;28;20375;-78
2022/06/27 14:12:02;;;;;;;6.70;5.63;;;;;;;;;;5009208;28;20041;-77
2022/06/27 14:14:28;;;;;;;7.05;5.57;;;;;;;;;;5006539;28;20037;-79
2022/06/27 14:16:53;;;;;;;11.13;5.75;;;;;;;;;;5010332;28;20037;-79
2022/06/27 14:19:20;;;;;;;8.82;5.70;;;;;;;;;;5023962;28;20499;-77
2022/06/27 14:21:46;;;;;;;6.53;5.80;;;;;;;;;;4998556;28;20034;-81
2022/06/27 14:24:12;;;;;;;6.38;5.60;;;;;;;;;;5003103;28;20116;-76
2022/06/27 14:26:38;;;;;;;7.90;5.82;;;;;;;;;;4989929;28;20045;-80
2022/06/27 14:29:03;;;;;;;5.90;5.30;;;;;;;;;;5002457;28;20042;-79
2022/06/27 14:31:29;;;;;;;7.57;5.35;;;;;;;;;;5010869;28;20018;-79
2022/06/27 14:33:54;;;;;;;6.35;5.13;;;;;;;;;;4997297;28;20052;-77
2022/06/27 14:36:20;;;;;;;6.07;5.47;;;;;;;;;;4997234;28;20037;-75
2022/06/27 14:38:45;;;;;;;7.68;5.20;;;;;;;;;;5007920;28;20042;-75
2022/06/27 14:41:11;;;;;;;6.85;5.30;;;;;;;;;;4995130;28;20473;-77
2022/06/27 14:43:38;;;;;;;7.75;5.03;;;;;;;;;;4993919;28;20038;-76
2022/06/27 14:46:04;;;;;;;8.73;5.05;;;;;;;;;;5011837;28;20052;-76
2022/06/27 14:48:30;;;;;;;6.25;5.10;;;;;;;;;;4993765;28;20477;-77
2022/06/27 14:50:55;;;;;;;8.18;5.03;;;;;;;;;;4992147;28;20034;-76